Time;durP1;ratioP1;P1;durP2;ratioP2;P2;SDS_P1;SDS_P2;PMS_P1;PMS_P2;Temp;Humidity;BMP_temperature;BMP_pressure;BME280_temperature;BME280_humidity;BME280_pressure;Samples;Min_cycle;Max_cycle;Signal;HPM_P1;HPM_P2
2021/12/15 00:00:31;;;;;;;141.00;52.30;;;9.90;99.90;;;;;;5092291;28;20101;-74
2021/12/15 00:02:57;;;;;;;149.30;52.10;;;9.90;99.90;;;;;;5093687;28;20040;-74
2021/12/15 00:05:25;;;;;;;143.18;54.13;;;9.90;99.90;;;;;;5095203;28;20046;-74
2021/12/15 00:07:53;;;;;;;139.40;51.55;;;9.90;99.90;;;;;;5093139;28;20048;-74
2021/12/15 00:10:21;;;;;;;139.13;53.15;;;9.90;99.90;;;;;;5092969;28;20043;-73
2021/12/15 00:12:47;;;;;;;136.80;52.58;;;9.90;99.90;;;;;;5093345;28;20054;-74
2021/12/15 00:15:14;;;;;;;142.00;52.50;;;9.90;99.90;;;;;;5093005;28;20040;-74
2021/12/15 00:17:40;;;;;;;143.25;53.35;;;9.90;99.90;;;;;;5094073;28;20048;-74
2021/12/15 00:20:11;;;;;;;124.78;50.08;;;9.90;99.90;;;;;;5093536;28;20408;-74
2021/12/15 00:22:38;;;;;;;138.50;52.53;;;9.90;99.90;;;;;;5112778;28;20420;-73
2021/12/15 00:25:06;;;;;;;134.35;52.30;;;9.90;99.90;;;;;;5107545;28;20036;-73
2021/12/15 00:27:32;;;;;;;128.25;50.50;;;9.90;99.90;;;;;;5092532;28;20036;-74
2021/12/15 00:29:57;;;;;;;131.93;49.95;;;9.90;99.90;;;;;;5094809;28;20048;-74
2021/12/15 00:32:23;;;;;;;126.47;49.83;;;9.90;99.90;;;;;;5112749;28;20083;-73
2021/12/15 00:34:51;;;;;;;131.32;49.78;;;9.90;99.90;;;;;;5097941;28;20393;-73
2021/12/15 00:37:18;;;;;;;131.15;49.38;;;10.00;99.90;;;;;;5092743;28;20059;-74
2021/12/15 00:39:44;;;;;;;128.90;48.38;;;10.00;99.90;;;;;;5092006;28;20115;-74
2021/12/15 00:42:10;;;;;;;129.55;48.33;;;9.90;99.90;;;;;;5112496;28;20048;-74
2021/12/15 00:44:36;;;;;;;124.55;47.85;;;9.90;99.90;;;;;;5112629;28;20051;-73
2021/12/15 00:47:03;;;;;;;121.40;47.30;;;9.90;99.90;;;;;;5094192;28;20055;-74
2021/12/15 00:49:30;;;;;;;138.73;48.97;;;9.90;99.90;;;;;;5091622;28;20054;-74
2021/12/15 00:51:56;;;;;;;129.48;48.38;;;9.90;99.90;;;;;;5103613;28;20078;-74
2021/12/15 00:54:22;;;;;;;133.77;47.40;;;9.90;99.90;;;;;;5092522;28;20083;-72
2021/12/15 00:56:53;;;;;;;133.30;48.88;;;10.00;99.90;;;;;;5106254;28;20059;-74
2021/12/15 00:59:19;;;;;;;124.03;47.10;;;9.90;99.90;;;;;;5092667;28;20048;-74
2021/12/15 01:01:45;;;;;;;128.52;46.78;;;9.90;99.90;;;;;;5106371;28;20430;-74
2021/12/15 01:04:14;;;;;;;135.15;48.45;;;9.90;99.90;;;;;;5113025;28;20177;-74
2021/12/15 01:06:41;;;;;;;124.55;46.28;;;10.00;99.90;;;;;;5095222;28;20048;-74
2021/12/15 01:09:13;;;;;;;120.90;45.83;;;10.00;99.90;;;;;;5092637;28;20392;-74
2021/12/15 01:19:51;;;;;;;115.90;46.38;;;10.00;99.90;;;;;;5091872;28;20047;-74
2021/12/15 01:22:26;;;;;;;124.25;46.03;;;9.90;99.90;;;;;;5072429;28;20036;-74
2021/12/15 01:24:56;;;;;;;124.55;46.25;;;9.90;99.90;;;;;;5076313;28;20044;-74
2021/12/15 01:27:22;;;;;;;111.43;43.97;;;10.00;99.90;;;;;;5093001;28;20051;-74
2021/12/15 01:29:48;;;;;;;120.20;44.70;;;9.90;99.90;;;;;;5096077;28;20130;-74
2021/12/15 01:32:15;;;;;;;111.25;45.53;;;9.90;99.90;;;;;;5115270;28;20188;-74
2021/12/15 01:34:40;;;;;;;111.75;44.47;;;10.00;99.90;;;;;;5115008;27;20047;-74
2021/12/15 01:37:07;;;;;;;120.78;45.63;;;9.90;99.90;;;;;;5095298;28;20109;-74
2021/12/15 01:39:33;;;;;;;118.20;44.20;;;9.90;99.90;;;;;;5095826;28;20051;-74
2021/12/15 01:41:59;;;;;;;109.57;42.42;;;9.90;99.90;;;;;;5115875;28;20044;-74
2021/12/15 01:46:56;;;;;;;109.03;41.67;;;9.90;99.90;;;;;;5096824;28;20046;-74
2021/12/15 01:49:44;;;;;;;110.88;42.17;;;9.90;99.90;;;;;;5095976;28;20044;-75
2021/12/15 01:52:42;;;;;;;101.60;41.00;;;9.90;99.90;;;;;;5116009;28;20093;-74
2021/12/15 01:55:17;;;;;;;100.50;40.38;;;9.90;99.90;;;;;;5089943;27;20059;-74
2021/12/15 01:57:46;;;;;;;98.30;39.38;;;9.90;99.90;;;;;;5095634;28;20389;-74
2021/12/15 02:00:21;;;;;;;99.03;39.67;;;9.90;99.90;;;;;;5098128;28;20130;-74
2021/12/15 02:02:50;;;;;;;99.82;40.05;;;9.90;99.90;;;;;;5114198;28;20484;-74
2021/12/15 02:05:16;;;;;;;95.10;39.45;;;9.90;99.90;;;;;;5106835;28;20055;-74
2021/12/15 02:07:45;;;;;;;94.43;39.00;;;9.90;99.90;;;;;;5115771;27;20048;-74
2021/12/15 02:10:11;;;;;;;93.40;39.15;;;9.90;99.90;;;;;;5101245;28;20119;-74
2021/12/15 02:12:40;;;;;;;92.82;39.97;;;9.90;99.90;;;;;;5111513;28;20047;-74
2021/12/15 02:15:20;;;;;;;97.35;40.42;;;9.90;99.90;;;;;;5096081;28;20040;-73
2021/12/15 02:17:46;;;;;;;92.45;39.67;;;9.90;99.90;;;;;;5090724;28;20051;-74
2021/12/15 02:20:15;;;;;;;94.30;39.53;;;9.90;99.90;;;;;;5095208;28;20401;-73
2021/12/15 02:22:42;;;;;;;93.55;39.75;;;9.90;99.90;;;;;;5115003;28;20480;-74
2021/12/15 02:25:11;;;;;;;95.25;39.97;;;9.90;99.90;;;;;;5115952;28;20043;-74
2021/12/15 02:27:37;;;;;;;93.43;40.30;;;9.90;99.90;;;;;;5095168;28;20055;-74
2021/12/15 02:30:21;;;;;;;92.72;40.17;;;9.90;99.90;;;;;;5095153;28;20044;-75
2021/12/15 02:33:08;;;;;;;97.35;41.60;;;9.90;99.90;;;;;;5074113;28;20513;-74
2021/12/15 02:38:24;;;;;;;101.05;41.55;;;9.80;99.90;;;;;;5115514;28;20575;-75
2021/12/15 02:40:51;;;;;;;100.72;41.17;;;9.90;99.90;;;;;;5106102;28;20085;-74
2021/12/15 02:43:16;;;;;;;96.82;41.63;;;9.80;99.90;;;;;;5095381;28;20047;-74
2021/12/15 02:45:42;;;;;;;98.45;40.53;;;9.90;99.90;;;;;;5099859;28;20385;-74
2021/12/15 02:48:08;;;;;;;96.90;40.90;;;9.90;99.90;;;;;;5108127;28;20047;-74
2021/12/15 02:50:36;;;;;;;87.78;38.08;;;9.80;99.90;;;;;;5111391;28;20090;-73
2021/12/15 02:53:02;;;;;;;85.82;37.92;;;9.80;99.90;;;;;;5094622;28;20108;-75
2021/12/15 02:55:29;;;;;;;89.00;39.30;;;9.80;99.90;;;;;;5094114;28;20060;-74
2021/12/15 02:57:55;;;;;;;86.63;39.22;;;9.80;99.90;;;;;;5094337;28;20032;-74
2021/12/15 03:00:25;;;;;;;86.05;39.60;;;9.80;99.90;;;;;;5094553;28;20396;-74
2021/12/15 03:03:29;;;;;;;90.15;40.90;;;9.80;99.90;;;;;;5096854;28;20048;-74
2021/12/15 03:05:58;;;;;;;91.72;39.83;;;9.80;99.90;;;;;;5093806;28;20473;-74
2021/12/15 03:08:37;;;;;;;96.88;43.08;;;9.80;99.90;;;;;;5094750;28;20052;-74
2021/12/15 03:16:31;;;;;;;99.50;44.78;;;9.80;99.90;;;;;;5094370;28;20052;-75
2021/12/15 03:18:58;;;;;;;98.25;44.10;;;9.80;99.90;;;;;;5093456;28;20036;-73
2021/12/15 03:21:26;;;;;;;100.28;42.78;;;9.80;99.90;;;;;;5102336;28;20083;-74
2021/12/15 03:24:20;;;;;;;100.35;44.08;;;9.80;99.90;;;;;;5114218;28;20385;-74
2021/12/15 03:27:04;;;;;;;103.97;45.40;;;9.80;99.90;;;;;;5097955;28;20052;-74
2021/12/15 03:37:41;;;;;;;107.07;46.78;;;9.80;99.90;;;;;;5094480;28;20060;-74
2021/12/15 03:40:24;;;;;;;108.28;46.78;;;9.80;99.90;;;;;;5094373;28;20052;-74
2021/12/15 03:42:58;;;;;;;106.05;46.08;;;9.80;99.90;;;;;;5073315;28;20041;-73
2021/12/15 03:45:32;;;;;;;103.85;46.53;;;9.80;99.90;;;;;;5079740;28;20032;-74
2021/12/15 03:48:01;;;;;;;109.57;46.47;;;9.80;99.90;;;;;;5073264;28;20048;-74
2021/12/15 03:50:29;;;;;;;107.53;47.42;;;9.80;99.90;;;;;;5083433;28;20559;-73
2021/12/15 03:52:55;;;;;;;116.63;48.83;;;9.80;99.90;;;;;;5072951;28;20186;-74
2021/12/15 03:55:29;;;;;;;114.32;49.28;;;9.80;99.90;;;;;;5076360;28;20427;-74
2021/12/15 03:57:56;;;;;;;119.88;50.95;;;9.80;99.90;;;;;;5072955;28;20063;-74
2021/12/15 04:00:23;;;;;;;120.30;50.05;;;9.70;99.90;;;;;;5086417;28;20125;-74
2021/12/15 04:02:49;;;;;;;121.65;50.63;;;9.70;99.90;;;;;;5093022;28;20051;-74
2021/12/15 04:05:17;;;;;;;122.00;51.63;;;9.80;99.90;;;;;;5093169;28;20043;-74
2021/12/15 04:07:43;;;;;;;125.70;51.88;;;9.70;99.90;;;;;;5088478;28;20044;-72
2021/12/15 04:10:13;;;;;;;123.82;51.83;;;9.80;99.90;;;;;;5093653;28;20040;-74
2021/12/15 04:12:39;;;;;;;123.20;53.33;;;9.70;99.90;;;;;;5112613;28;20496;-74
2021/12/15 04:15:20;;;;;;;126.00;51.97;;;9.70;99.90;;;;;;5113228;28;20045;-74
2021/12/15 04:17:47;;;;;;;128.90;53.70;;;9.70;99.90;;;;;;5092597;28;20040;-72
2021/12/15 04:20:16;;;;;;;132.90;54.70;;;9.70;99.90;;;;;;5093299;28;20503;-75
2021/12/15 04:22:42;;;;;;;132.75;55.38;;;9.70;99.90;;;;;;5093471;28;20511;-75
2021/12/15 04:25:11;;;;;;;133.38;56.05;;;9.70;99.90;;;;;;5096962;28;20047;-74
2021/12/15 04:27:37;;;;;;;134.07;56.08;;;9.70;99.90;;;;;;5095832;28;20096;-74
2021/12/15 04:30:06;;;;;;;129.98;54.90;;;9.70;99.90;;;;;;5092647;28;20055;-74
2021/12/15 04:32:40;;;;;;;138.45;55.45;;;9.80;99.90;;;;;;5093227;28;20036;-75
2021/12/15 04:35:07;;;;;;;145.70;59.00;;;9.70;99.90;;;;;;5092240;28;20677;-74
2021/12/15 04:37:33;;;;;;;134.60;56.80;;;9.70;99.90;;;;;;5093374;28;20390;-75
2021/12/15 04:39:59;;;;;;;145.18;58.97;;;9.70;99.90;;;;;;5092056;28;20070;-74
2021/12/15 04:42:26;;;;;;;138.52;59.42;;;9.70;99.90;;;;;;5092981;28;20032;-75
2021/12/15 04:44:56;;;;;;;137.13;57.00;;;9.70;99.90;;;;;;5092245;28;20063;-74
2021/12/15 04:47:23;;;;;;;142.90;58.85;;;9.70;99.90;;;;;;5095021;28;20119;-73
2021/12/15 04:49:52;;;;;;;146.10;61.22;;;9.70;99.90;;;;;;5092806;28;20052;-72
2021/12/15 04:52:21;;;;;;;143.27;60.03;;;9.70;99.90;;;;;;5092739;28;20047;-75
2021/12/15 04:54:48;;;;;;;141.85;60.70;;;9.70;99.90;;;;;;5093586;28;20036;-75
2021/12/15 04:57:16;;;;;;;146.63;60.63;;;9.70;99.90;;;;;;5092422;28;20123;-75
2021/12/15 04:59:43;;;;;;;137.10;61.28;;;9.70;99.90;;;;;;5093568;28;20044;-75
2021/12/15 05:02:10;;;;;;;141.00;60.70;;;9.70;99.90;;;;;;5090863;28;20040;-75
2021/12/15 05:04:36;;;;;;;138.23;62.35;;;9.70;99.90;;;;;;5092455;28;20052;-73
2021/12/15 05:07:02;;;;;;;135.02;60.40;;;9.70;99.90;;;;;;5092067;28;20048;-75
2021/12/15 05:09:29;;;;;;;136.10;60.15;;;9.70;99.90;;;;;;5092369;28;20115;-74
2021/12/15 05:11:54;;;;;;;142.32;59.50;;;9.70;99.90;;;;;;5091878;28;20050;-73
2021/12/15 05:14:23;;;;;;;128.05;59.63;;;9.70;99.90;;;;;;5092229;28;20122;-76
2021/12/15 05:16:49;;;;;;;135.98;59.53;;;9.70;99.90;;;;;;5093383;28;20058;-75
2021/12/15 05:19:15;;;;;;;140.48;59.85;;;9.70;99.90;;;;;;5091563;28;20430;-74
2021/12/15 05:21:41;;;;;;;142.75;62.65;;;9.70;99.90;;;;;;5092481;28;20036;-74
2021/12/15 05:24:25;;;;;;;130.43;60.85;;;9.70;99.90;;;;;;5091864;28;20059;-74
2021/12/15 05:26:51;;;;;;;137.77;60.47;;;9.70;99.90;;;;;;5092479;28;20040;-74
2021/12/15 05:29:17;;;;;;;133.15;59.88;;;9.70;99.90;;;;;;5091188;28;20040;-74
2021/12/15 05:31:42;;;;;;;133.48;59.17;;;9.70;99.90;;;;;;5092206;28;20504;-74
2021/12/15 05:34:08;;;;;;;134.07;60.00;;;9.70;99.90;;;;;;5091795;28;20048;-74
2021/12/15 05:36:34;;;;;;;133.35;60.90;;;9.70;99.90;;;;;;5091758;28;20420;-74
2021/12/15 05:38:59;;;;;;;134.25;62.60;;;9.70;99.90;;;;;;5090158;28;20109;-74
2021/12/15 05:41:25;;;;;;;136.88;62.03;;;9.70;99.90;;;;;;5092360;28;20044;-75
2021/12/15 05:43:51;;;;;;;131.43;59.97;;;9.70;99.90;;;;;;5092325;28;20373;-74
2021/12/15 05:46:17;;;;;;;134.40;62.58;;;9.70;99.90;;;;;;5091486;28;20074;-75
2021/12/15 05:48:43;;;;;;;132.63;61.33;;;9.70;99.90;;;;;;5092106;28;20102;-74
2021/12/15 05:51:08;;;;;;;126.85;59.33;;;9.70;99.90;;;;;;5090257;28;20051;-74
2021/12/15 05:53:34;;;;;;;135.73;61.17;;;9.70;99.90;;;;;;5092382;28;20117;-74
2021/12/15 05:56:00;;;;;;;132.80;61.83;;;9.70;99.90;;;;;;5091632;28;20059;-74
2021/12/15 05:58:26;;;;;;;128.05;61.85;;;9.70;99.90;;;;;;5092143;28;20066;-75
2021/12/15 06:00:51;;;;;;;128.65;62.45;;;9.70;99.90;;;;;;5091541;28;20056;-74
2021/12/15 06:03:17;;;;;;;134.90;60.65;;;9.70;99.90;;;;;;5090257;28;20562;-74
2021/12/15 06:05:43;;;;;;;132.38;61.65;;;9.70;99.90;;;;;;5090821;28;20130;-75
2021/12/15 06:08:09;;;;;;;129.15;60.42;;;9.70;99.90;;;;;;5091198;28;20044;-75
2021/12/15 06:10:37;;;;;;;124.20;60.75;;;9.70;99.90;;;;;;5091727;28;20429;-75
2021/12/15 06:13:05;;;;;;;127.03;59.40;;;9.70;99.90;;;;;;5091377;28;20598;-74
2021/12/15 06:15:31;;;;;;;126.07;60.20;;;9.70;99.90;;;;;;5095952;28;20127;-74
2021/12/15 06:18:07;;;;;;;129.75;60.47;;;9.70;99.90;;;;;;5095501;28;20086;-75
2021/12/15 06:20:33;;;;;;;130.45;62.72;;;9.70;99.90;;;;;;5095279;28;20044;-75
2021/12/15 06:23:01;;;;;;;129.13;61.20;;;9.70;99.90;;;;;;5095010;28;20043;-72
2021/12/15 06:25:28;;;;;;;129.27;61.28;;;9.70;99.90;;;;;;5094686;28;20091;-75
2021/12/15 06:27:54;;;;;;;132.23;59.35;;;9.70;99.90;;;;;;5094888;28;20519;-75
2021/12/15 06:30:20;;;;;;;125.70;57.92;;;9.70;99.90;;;;;;5094716;28;20044;-75
2021/12/15 06:32:46;;;;;;;127.10;59.58;;;9.70;99.90;;;;;;5094571;28;20036;-75
2021/12/15 06:35:12;;;;;;;126.35;60.42;;;9.70;99.90;;;;;;5094688;28;20195;-75
2021/12/15 06:37:38;;;;;;;128.65;58.83;;;9.60;99.90;;;;;;5094248;28;20135;-76
2021/12/15 06:40:08;;;;;;;125.97;59.03;;;9.70;99.90;;;;;;5094720;28;20102;-74
2021/12/15 06:42:39;;;;;;;121.75;58.88;;;9.70;99.90;;;;;;5095227;28;20081;-76
2021/12/15 06:45:07;;;;;;;122.38;57.72;;;9.70;99.90;;;;;;5094743;28;20366;-74
2021/12/15 06:58:30;;;;;;;123.50;59.42;;;9.70;99.90;;;;;;5094990;28;20044;-75
2021/12/15 07:01:00;;;;;;;119.72;58.50;;;9.70;99.90;;;;;;5094511;28;20055;-75
2021/12/15 07:03:26;;;;;;;122.27;58.03;;;9.70;99.90;;;;;;5093915;28;20040;-75
2021/12/15 07:05:55;;;;;;;125.65;58.53;;;9.70;99.90;;;;;;5094346;28;20745;-75
2021/12/15 07:08:23;;;;;;;121.35;57.80;;;9.70;99.90;;;;;;5093918;28;20079;-75
2021/12/15 07:10:51;;;;;;;127.38;58.60;;;9.70;99.90;;;;;;5094309;28;20048;-75
2021/12/15 07:13:18;;;;;;;125.07;57.70;;;9.70;99.90;;;;;;5093942;28;20040;-75
2021/12/15 07:15:46;;;;;;;120.50;56.38;;;9.70;99.90;;;;;;5094224;28;20136;-75
2021/12/15 07:18:15;;;;;;;121.95;58.92;;;9.70;99.90;;;;;;5092781;28;20087;-75
2021/12/15 07:20:49;;;;;;;121.13;57.10;;;9.70;99.90;;;;;;5094129;28;20044;-75
2021/12/15 07:23:18;;;;;;;123.82;57.42;;;9.70;99.90;;;;;;5094029;28;20132;-75
2021/12/15 07:25:46;;;;;;;125.10;58.70;;;9.70;99.90;;;;;;5093533;28;20051;-75
2021/12/15 07:28:14;;;;;;;130.85;58.03;;;9.70;99.90;;;;;;5093506;28;20048;-74
2021/12/15 07:30:40;;;;;;;121.50;56.75;;;9.70;99.90;;;;;;5093870;28;20079;-75
2021/12/15 07:33:08;;;;;;;124.63;57.38;;;9.70;99.90;;;;;;5093855;28;20043;-75
2021/12/15 07:35:36;;;;;;;119.75;56.17;;;9.70;99.90;;;;;;5093213;28;20414;-75
2021/12/15 07:38:02;;;;;;;120.30;56.00;;;9.70;99.90;;;;;;5094208;28;20058;-75
2021/12/15 07:40:28;;;;;;;121.35;57.85;;;9.70;99.90;;;;;;5093518;28;20082;-75
2021/12/15 07:43:08;;;;;;;122.13;56.85;;;9.70;99.90;;;;;;5094203;28;20089;-76
2021/12/15 07:45:38;;;;;;;123.30;58.13;;;9.70;99.90;;;;;;5093240;28;20063;-75
2021/12/15 07:48:06;;;;;;;123.45;56.83;;;9.70;99.90;;;;;;5093962;28;20510;-75
2021/12/15 07:50:33;;;;;;;116.75;56.22;;;9.70;99.90;;;;;;5093372;28;20052;-71
2021/12/15 07:52:59;;;;;;;121.43;57.58;;;9.70;99.90;;;;;;5093685;28;20043;-75
2021/12/15 07:55:25;;;;;;;118.63;55.22;;;9.70;99.90;;;;;;5093316;28;20083;-74
2021/12/15 07:57:52;;;;;;;121.00;55.25;;;9.70;99.90;;;;;;5092912;28;20055;-75
2021/12/15 08:00:19;;;;;;;124.20;56.38;;;9.70;99.90;;;;;;5093133;28;20223;-75
2021/12/15 08:02:45;;;;;;;117.25;55.20;;;9.70;99.90;;;;;;5094031;28;20046;-74
2021/12/15 08:05:11;;;;;;;123.90;57.05;;;9.70;99.90;;;;;;5092556;28;20048;-71
2021/12/15 08:07:37;;;;;;;117.95;54.30;;;9.70;99.90;;;;;;5093674;28;20066;-75
2021/12/15 08:10:08;;;;;;;121.00;55.85;;;9.70;99.90;;;;;;5093123;28;20092;-75
2021/12/15 08:12:34;;;;;;;117.63;55.47;;;9.70;99.90;;;;;;5093053;28;20047;-75
2021/12/15 08:15:00;;;;;;;123.25;56.20;;;9.70;99.90;;;;;;5093763;28;20036;-75
2021/12/15 08:17:25;;;;;;;121.35;55.17;;;9.70;99.90;;;;;;5092952;28;20131;-74
2021/12/15 08:19:51;;;;;;;122.93;55.42;;;9.70;99.90;;;;;;5092843;28;20052;-72
2021/12/15 08:22:17;;;;;;;116.38;54.90;;;9.80;99.90;;;;;;5092465;28;20036;-74
2021/12/15 08:24:43;;;;;;;117.38;55.55;;;9.80;99.90;;;;;;5091316;28;20470;-75
2021/12/15 08:27:09;;;;;;;113.85;53.47;;;9.80;99.90;;;;;;5093403;28;20045;-75
2021/12/15 08:29:35;;;;;;;116.57;54.75;;;9.80;99.90;;;;;;5092711;28;20040;-75
2021/12/15 08:32:00;;;;;;;114.00;52.72;;;9.80;99.90;;;;;;5092810;28;20043;-75
2021/12/15 08:34:26;;;;;;;113.97;53.72;;;9.80;99.90;;;;;;5092742;28;20044;-75
2021/12/15 08:36:54;;;;;;;118.53;53.58;;;9.80;99.90;;;;;;5110512;28;20066;-74
2021/12/15 08:39:20;;;;;;;115.43;52.00;;;9.90;99.90;;;;;;5112888;28;20043;-74
2021/12/15 08:41:46;;;;;;;113.72;52.17;;;9.80;99.90;;;;;;5113750;28;20080;-76
2021/12/15 08:44:12;;;;;;;116.35;53.42;;;9.90;99.90;;;;;;5113430;28;20126;-76
2021/12/15 08:46:41;;;;;;;110.35;54.35;;;9.90;99.90;;;;;;5112915;28;20131;-76
2021/12/15 08:49:16;;;;;;;112.55;52.55;;;9.90;99.90;;;;;;5105802;28;20495;-74
2021/12/15 08:51:43;;;;;;;112.07;52.47;;;9.90;99.90;;;;;;5092089;28;20093;-75
2021/12/15 08:54:14;;;;;;;112.70;52.88;;;9.90;99.90;;;;;;5089250;28;20055;-76
2021/12/15 08:56:41;;;;;;;110.80;51.63;;;9.90;99.90;;;;;;5105009;28;20103;-76
2021/12/15 08:59:07;;;;;;;110.10;52.60;;;10.00;99.90;;;;;;5109139;28;20035;-76
2021/12/15 09:01:33;;;;;;;117.63;52.33;;;10.00;99.90;;;;;;5108188;28;20130;-75
2021/12/15 09:03:59;;;;;;;113.03;51.80;;;10.00;99.90;;;;;;5110306;28;20047;-77
2021/12/15 09:06:26;;;;;;;108.25;50.00;;;10.00;99.90;;;;;;5109265;28;20189;-76
2021/12/15 09:08:52;;;;;;;106.30;50.47;;;10.00;99.90;;;;;;5110356;28;20040;-75
2021/12/15 09:11:21;;;;;;;105.18;50.03;;;10.00;99.90;;;;;;5109617;28;20407;-73
2021/12/15 09:13:52;;;;;;;105.07;50.53;;;10.00;99.90;;;;;;5098870;28;20516;-76
2021/12/15 09:16:18;;;;;;;;;;;10.00;99.90;;;;;;5089746;28;20401;-73
2021/12/15 09:18:46;;;;;;;105.53;50.22;;;10.00;99.90;;;;;;5089563;28;19920;-77
2021/12/15 09:21:14;;;;;;;104.75;48.33;;;10.00;99.90;;;;;;5089521;28;20055;-76
2021/12/15 09:23:41;;;;;;;104.97;50.33;;;10.00;99.90;;;;;;5090278;28;20040;-76
2021/12/15 09:26:07;;;;;;;105.15;48.40;;;10.00;99.90;;;;;;5089788;28;20374;-76
2021/12/15 09:28:35;;;;;;;106.55;50.28;;;10.10;99.90;;;;;;5100206;28;20044;-76
2021/12/15 09:31:01;;;;;;;96.10;47.97;;;10.10;99.90;;;;;;5089250;28;20048;-76
2021/12/15 09:33:30;;;;;;;97.50;46.38;;;10.10;99.90;;;;;;5094241;28;20105;-76
2021/12/15 09:35:57;;;;;;;93.18;46.17;;;10.10;99.90;;;;;;5089041;28;20150;-78
2021/12/15 09:38:23;;;;;;;98.25;46.47;;;10.10;99.90;;;;;;5094484;28;20122;-77
2021/12/15 09:40:52;;;;;;;97.97;46.58;;;10.10;99.90;;;;;;5110024;28;20077;-76
2021/12/15 09:43:19;;;;;;;101.15;47.65;;;10.10;99.90;;;;;;5109475;28;20082;-77
2021/12/15 09:46:01;;;;;;;101.47;46.83;;;10.20;99.90;;;;;;5109042;28;20077;-75
2021/12/15 10:04:40;;;;;;;93.20;47.28;;;10.30;99.90;;;;;;5112403;27;20048;-75
2021/12/15 10:17:24;;;;;;;96.40;47.85;;;10.40;99.90;;;;;;5112528;28;20050;-74
2021/12/15 10:18:39;;;;;;;94.97;46.40;;;10.40;99.90;;;;;;5098399;27;20447;-76
2021/12/15 10:20:59;;;;;;;97.75;47.28;;;10.40;99.90;;;;;;5102810;28;20720;-75
2021/12/15 10:23:34;;;;;;;92.25;46.35;;;10.40;99.90;;;;;;5095610;28;20027;-73
2021/12/15 10:25:59;;;;;;;91.65;45.00;;;10.40;99.90;;;;;;5083594;28;20413;-73
2021/12/15 10:28:29;;;;;;;95.28;45.35;;;10.40;99.90;;;;;;5093988;28;20044;-73
2021/12/15 10:31:02;;;;;;;90.82;45.40;;;10.50;99.90;;;;;;5092635;28;20048;-75
2021/12/15 10:33:38;;;;;;;95.72;46.35;;;10.50;99.90;;;;;;5091856;28;20047;-73
2021/12/15 10:36:35;;;;;;;92.78;45.83;;;10.50;99.90;;;;;;5091828;28;20048;-74
2021/12/15 10:39:04;;;;;;;89.43;43.80;;;10.50;99.90;;;;;;5092386;28;20052;-76
2021/12/15 10:41:36;;;;;;;88.95;45.35;;;10.60;99.90;;;;;;5091662;28;20032;-76
2021/12/15 10:44:07;;;;;;;89.97;45.60;;;10.60;99.90;;;;;;5092108;28;20076;-76
2021/12/15 10:46:42;;;;;;;83.20;42.85;;;10.60;99.90;;;;;;5091623;28;20124;-76
2021/12/15 10:49:12;;;;;;;78.07;42.30;;;10.60;99.90;;;;;;5091545;28;20040;-76
2021/12/15 10:51:53;;;;;;;79.78;40.70;;;10.70;99.90;;;;;;5091729;28;20083;-76
2021/12/15 10:54:44;;;;;;;84.53;42.85;;;10.70;99.90;;;;;;5091090;28;20101;-76
2021/12/15 10:57:12;;;;;;;76.10;39.92;;;10.70;99.90;;;;;;5091265;28;20044;-76
2021/12/15 10:59:44;;;;;;;60.88;34.67;;;10.70;99.90;;;;;;5091695;28;20046;-76
2021/12/15 11:02:16;;;;;;;67.32;36.40;;;10.80;99.90;;;;;;5090543;28;20396;-76
2021/12/15 11:04:45;;;;;;;65.68;36.83;;;10.80;99.90;;;;;;5091197;28;20142;-77
2021/12/15 11:07:21;;;;;;;61.85;35.65;;;10.80;99.90;;;;;;5091840;28;20056;-73
2021/12/15 11:10:24;;;;;;;58.90;34.10;;;10.90;99.90;;;;;;5091690;28;20126;-76
2021/12/15 11:13:12;;;;;;;60.17;33.92;;;10.90;99.90;;;;;;5085602;28;20052;-72
2021/12/15 11:15:45;;;;;;;59.88;34.30;;;11.00;99.90;;;;;;5091379;28;20055;-76
2021/12/15 11:18:16;;;;;;;60.40;33.85;;;11.00;99.90;;;;;;5087400;28;20150;-76
2021/12/15 11:20:50;;;;;;;63.08;36.17;;;11.00;99.90;;;;;;5081404;28;20497;-75
2021/12/15 11:23:20;;;;;;;61.75;35.47;;;11.00;99.90;;;;;;5087671;28;20069;-76
2021/12/15 11:25:52;;;;;;;65.75;35.88;;;11.00;99.90;;;;;;5090538;28;20125;-74
2021/12/15 11:28:38;;;;;;;67.93;36.53;;;11.00;99.90;;;;;;5091090;28;20044;-77
2021/12/15 11:31:12;;;;;;;64.68;35.75;;;11.00;99.90;;;;;;5091053;28;20040;-75
2021/12/15 11:33:48;;;;;;;64.93;36.15;;;11.00;99.90;;;;;;5089761;28;20116;-76
2021/12/15 11:36:21;;;;;;;64.85;36.47;;;11.00;99.90;;;;;;5090992;28;20055;-76
2021/12/15 11:38:49;;;;;;;67.15;35.85;;;11.00;99.90;;;;;;5087256;28;20082;-73
2021/12/15 11:41:19;;;;;;;65.07;37.08;;;11.00;99.90;;;;;;5090232;28;20143;-75
2021/12/15 11:43:53;;;;;;;61.00;34.30;;;11.10;99.90;;;;;;5090346;28;20040;-76
2021/12/15 11:46:21;;;;;;;56.78;34.47;;;11.10;99.90;;;;;;5089571;28;20135;-76
2021/12/15 11:48:57;;;;;;;61.65;34.80;;;11.10;99.90;;;;;;5089809;28;20040;-77
2021/12/15 11:51:54;;;;;;;58.05;34.30;;;11.20;99.90;;;;;;5090199;28;20458;-76
2021/12/15 11:54:37;;;;;;;58.13;32.60;;;11.20;99.90;;;;;;5088987;28;20117;-76
2021/12/15 11:57:24;;;;;;;52.63;31.65;;;11.20;99.90;;;;;;5089804;28;20068;-77
2021/12/15 11:59:54;;;;;;;52.28;31.75;;;11.20;99.90;;;;;;5091339;28;20048;-77
2021/12/15 12:02:38;;;;;;;53.42;31.38;;;11.20;99.90;;;;;;5095977;28;20105;-81
2021/12/15 12:05:10;;;;;;;54.08;31.92;;;11.20;99.90;;;;;;5094991;28;20500;-77
2021/12/15 12:07:48;;;;;;;48.35;29.77;;;11.20;99.90;;;;;;5097341;28;20036;-71
2021/12/15 12:10:17;;;;;;;48.92;29.65;;;11.20;99.90;;;;;;5091956;28;20055;-76
2021/12/15 12:12:53;;;;;;;51.75;30.80;;;11.20;99.90;;;;;;5091809;28;20506;-76
2021/12/15 12:15:26;;;;;;;47.13;29.65;;;11.20;99.90;;;;;;5092903;28;20099;-77
2021/12/15 12:17:56;;;;;;;48.25;28.85;;;11.30;99.90;;;;;;5092477;28;20401;-77
2021/12/15 12:20:30;;;;;;;45.28;27.83;;;11.30;99.90;;;;;;5092852;28;20043;-77
2021/12/15 12:22:58;;;;;;;45.70;27.75;;;11.30;99.90;;;;;;5092056;28;20541;-76
2021/12/15 12:25:37;;;;;;;45.33;28.25;;;11.30;99.90;;;;;;5092518;28;20055;-76
2021/12/15 12:28:15;;;;;;;47.03;29.13;;;11.30;99.90;;;;;;5091985;28;20031;-77
2021/12/15 12:30:51;;;;;;;46.00;29.35;;;11.30;99.90;;;;;;5084640;28;20047;-75
2021/12/15 12:33:19;;;;;;;48.00;29.13;;;11.30;99.90;;;;;;5088118;28;20536;-77
2021/12/15 12:35:48;;;;;;;51.50;30.50;;;11.30;99.90;;;;;;5088707;28;20058;-75
2021/12/15 12:38:19;;;;;;;48.40;29.48;;;11.30;99.90;;;;;;5089523;28;20067;-76
2021/12/15 12:40:59;;;;;;;46.55;29.77;;;11.20;99.90;;;;;;5068718;28;20678;-76
2021/12/15 12:43:31;;;;;;;47.60;30.15;;;11.20;99.90;;;;;;5074256;28;20063;-76
2021/12/15 12:46:09;;;;;;;45.17;29.30;;;11.20;99.90;;;;;;5100435;28;20032;-75
2021/12/15 13:00:35;;;;;;;48.55;30.95;;;11.00;99.90;;;;;;5100068;28;20165;-76
2021/12/15 13:03:05;;;;;;;44.88;29.02;;;11.00;99.90;;;;;;5086108;28;20052;-75
2021/12/15 13:05:38;;;;;;;47.17;30.00;;;11.00;99.90;;;;;;5088278;28;20048;-75
2021/12/15 13:08:10;;;;;;;48.22;29.75;;;10.90;99.90;;;;;;5091222;28;20130;-76
2021/12/15 13:11:35;;;;;;;43.58;28.40;;;10.90;99.90;;;;;;5092844;28;20056;-76
2021/12/15 13:14:20;;;;;;;44.83;30.08;;;10.90;99.90;;;;;;5099513;28;20048;-77
2021/12/15 13:16:52;;;;;;;44.45;29.10;;;10.90;99.90;;;;;;5102148;28;20040;-75
2021/12/15 13:19:33;;;;;;;43.05;29.10;;;10.90;99.90;;;;;;5092985;28;20093;-76
2021/12/15 13:30:40;;;;;;;36.97;26.35;;;10.90;99.90;;;;;;5089779;28;20063;-77
2021/12/15 13:33:14;;;;;;;38.88;26.50;;;10.90;99.90;;;;;;5099868;28;20506;-77
2021/12/15 13:35:45;;;;;;;36.40;25.08;;;10.90;99.90;;;;;;5108394;28;20043;-76
2021/12/15 13:38:11;;;;;;;;;;;10.90;99.90;;;;;;5104107;28;20063;-76
2021/12/15 13:40:49;;;;;;;36.15;25.02;;;10.90;99.90;;;;;;5096642;28;20285;-76
2021/12/15 13:44:19;;;;;;;37.08;25.58;;;10.90;99.90;;;;;;5093555;28;20040;-76
2021/12/15 13:46:47;;;;;;;38.42;25.75;;;10.90;99.90;;;;;;5032223;28;20405;-73
2021/12/15 13:49:28;;;;;;;38.00;25.65;;;10.90;99.90;;;;;;5032101;28;20227;-74
2021/12/15 13:52:22;;;;;;;35.88;25.50;;;10.90;99.90;;;;;;5073137;27;20096;-77
2021/12/15 13:54:51;;;;;;;38.05;24.92;;;10.90;99.90;;;;;;5096878;28;20043;-73
2021/12/15 13:57:33;;;;;;;34.00;24.40;;;10.90;99.90;;;;;;5090529;28;20048;-76
2021/12/15 14:00:16;;;;;;;31.50;22.55;;;10.90;99.90;;;;;;5110466;28;20116;-76
2021/12/15 14:03:04;;;;;;;26.83;19.33;;;10.90;99.90;;;;;;5100122;28;20498;-76
2021/12/15 14:05:43;;;;;;;23.83;17.10;;;10.90;99.90;;;;;;5114911;27;20500;-76
2021/12/15 14:08:17;;;;;;;19.63;14.10;;;10.90;99.90;;;;;;5095696;28;20511;-77